Garner, Kentucky
Current Conditions -  °F | °C
As of 12:55 AM on Sunday 26 Oct 2014 (Local Time) from KPBX Reporting Station
Clear Clear  
Wind Chill: 58°   Ceiling: Unl
Heat Index: 58°   Visibility: 10mi
Dew Point: 54°   Wind: 3mph
Humidity: 86%   Direction: 220°SW
Pressure: 29.95"   Gusts: NA
Location:  37.36°N, 82.93°W
Report Text: KPBX 260455Z AUTO 22003KT 10SM CLR 15/12 A2995 RMK AO2 T01460123 401860037
Loading
Personal Weather Stations






























Interactive Weather Map
Tropical Storm Tracking
New forecast layout! Learn more

10-Day Weather Forecast

Advertisements
Track Severe Weather on mobile